sensor_id;sensor_type;location;lat;lon;timestamp;pressure;altitude;pressure_sealevel;temperature;humidity
73422;BME280;61637;47.760;-122.022;2022-08-03T00:00:00;101591.7;;;24.7;unknown
73422;BME280;61637;47.760;-122.022;2022-08-03T00:02:00;101591.7;;;24.6;unknown
73422;BME280;61637;47.760;-122.022;2022-08-03T00:04:01;101591.7;;;24.6;unknown
73422;BME280;61637;47.760;-122.022;2022-08-03T00:06:00;101591.7;;;24.7;unknown
73422;BME280;61637;47.760;-122.022;2022-08-03T00:08:00;101591.7;;;24.8;unknown
73422;BME280;61637;47.760;-122.022;2022-08-03T00:10:00;101591.7;;;24.8;unknown
73422;BME280;61637;47.760;-122.022;2022-08-03T00:12:00;101591.7;;;25.1;unknown
73422;BME280;61637;47.760;-122.022;2022-08-03T00:14:00;101591.7;;;25.6;unknown
73422;BME280;61637;47.760;-122.022;2022-08-03T00:16:00;101591.7;;;25.9;unknown
73422;BME280;61637;47.760;-122.022;2022-08-03T00:18:00;101591.7;;;26.2;unknown
73422;BME280;61637;47.760;-122.022;2022-08-03T00:20:00;101591.7;;;26.6;unknown
73422;BME280;61637;47.760;-122.022;2022-08-03T00:22:00;101591.7;;;26.8;unknown
73422;BME280;61637;47.760;-122.022;2022-08-03T00:24:01;101591.7;;;26.9;unknown
73422;BME280;61637;47.760;-122.022;2022-08-03T00:26:00;101591.7;;;27.0;unknown
73422;BME280;61637;47.760;-122.022;2022-08-03T00:28:00;101591.7;;;27.2;unknown
73422;BME280;61637;47.760;-122.022;2022-08-03T00:30:00;101591.7;;;27.3;unknown
73422;BME280;61637;47.760;-122.022;2022-08-03T00:32:00;101591.7;;;27.3;unknown
73422;BME280;61637;47.760;-122.022;2022-08-03T00:34:00;101591.7;;;27.5;unknown
73422;BME280;61637;47.760;-122.022;2022-08-03T00:36:01;101591.7;;;27.6;unknown
73422;BME280;61637;47.760;-122.022;2022-08-03T00:38:00;101591.7;;;27.6;unknown
73422;BME280;61637;47.760;-122.022;2022-08-03T00:40:00;101591.7;;;27.6;unknown
73422;BME280;61637;47.760;-122.022;2022-08-03T00:42:01;101591.7;;;27.7;unknown
73422;BME280;61637;47.760;-122.022;2022-08-03T00:44:00;101591.7;;;27.7;unknown
73422;BME280;61637;47.760;-122.022;2022-08-03T00:46:00;101591.7;;;27.6;unknown
73422;BME280;61637;47.760;-122.022;2022-08-03T00:48:01;101591.7;;;27.6;unknown
73422;BME280;61637;47.760;-122.022;2022-08-03T00:50:00;101591.7;;;27.5;unknown
73422;BME280;61637;47.760;-122.022;2022-08-03T00:52:01;101591.7;;;27.4;unknown
73422;BME280;61637;47.760;-122.022;2022-08-03T00:54:00;101591.7;;;27.4;unknown
73422;BME280;61637;47.760;-122.022;2022-08-03T00:56:00;101591.7;;;27.4;unknown
73422;BME280;61637;47.760;-122.022;2022-08-03T00:58:01;101591.7;;;27.4;unknown
73422;BME280;61637;47.760;-122.022;2022-08-03T01:00:01;101591.7;;;27.3;unknown
73422;BME280;61637;47.760;-122.022;2022-08-03T01:02:00;101591.7;;;27.2;unknown
73422;BME280;61637;47.760;-122.022;2022-08-03T01:04:00;101591.7;;;27.3;unknown
73422;BME280;61637;47.760;-122.022;2022-08-03T01:06:02;101591.7;;;27.4;unknown
73422;BME280;61637;47.760;-122.022;2022-08-03T01:08:02;101591.7;;;27.3;unknown
73422;BME280;61637;47.760;-122.022;2022-08-03T01:10:03;101591.7;;;27.2;unknown
73422;BME280;61637;47.760;-122.022;2022-08-03T01:12:02;101591.7;;;27.1;unknown
73422;BME280;61637;47.760;-122.022;2022-08-03T01:14:02;101591.7;;;26.8;unknown
73422;BME280;61637;47.760;-122.022;2022-08-03T01:16:01;101591.7;;;26.6;unknown
73422;BME280;61637;47.760;-122.022;2022-08-03T01:18:02;101591.7;;;26.3;unknown
73422;BME280;61637;47.760;-122.022;2022-08-03T01:20:02;101591.7;;;26.2;unknown
73422;BME280;61637;47.760;-122.022;2022-08-03T01:22:03;101591.7;;;25.9;unknown
73422;BME280;61637;47.760;-122.022;2022-08-03T01:24:04;101591.7;;;25.6;unknown
73422;BME280;61637;47.760;-122.022;2022-08-03T01:26:05;101591.7;;;25.3;unknown
73422;BME280;61637;47.760;-122.022;2022-08-03T01:28:05;101591.7;;;25.1;unknown
73422;BME280;61637;47.760;-122.022;2022-08-03T01:30:03;101591.7;;;25.2;unknown
73422;BME280;61637;47.760;-122.022;2022-08-03T01:32:02;101591.7;;;25.2;unknown
73422;BME280;61637;47.760;-122.022;2022-08-03T01:34:01;101591.7;;;25.4;unknown
73422;BME280;61637;47.760;-122.022;2022-08-03T01:36:02;101591.7;;;25.6;unknown
73422;BME280;61637;47.760;-122.022;2022-08-03T01:38:01;101591.7;;;25.6;unknown
73422;BME280;61637;47.760;-122.022;2022-08-03T01:40:00;101591.7;;;25.7;unknown
73422;BME280;61637;47.760;-122.022;2022-08-03T01:42:01;101591.7;;;25.7;unknown
73422;BME280;61637;47.760;-122.022;2022-08-03T01:44:01;101591.7;;;25.6;unknown
73422;BME280;61637;47.760;-122.022;2022-08-03T01:46:00;101591.7;;;25.4;unknown
73422;BME280;61637;47.760;-122.022;2022-08-03T01:48:00;101591.7;;;25.3;unknown
73422;BME280;61637;47.760;-122.022;2022-08-03T01:50:00;101591.7;;;25.2;unknown
73422;BME280;61637;47.760;-122.022;2022-08-03T01:52:00;101591.7;;;25.1;unknown
73422;BME280;61637;47.760;-122.022;2022-08-03T01:54:00;101591.7;;;24.9;unknown
73422;BME280;61637;47.760;-122.022;2022-08-03T01:56:00;101591.7;;;24.8;unknown
73422;BME280;61637;47.760;-122.022;2022-08-03T01:58:01;101591.7;;;24.7;unknown
73422;BME280;61637;47.760;-122.022;2022-08-03T02:00:00;101591.7;;;24.6;unknown
73422;BME280;61637;47.760;-122.022;2022-08-03T02:02:00;101591.7;;;24.5;unknown
73422;BME280;61637;47.760;-122.022;2022-08-03T02:04:00;101591.7;;;24.4;unknown
73422;BME280;61637;47.760;-122.022;2022-08-03T02:06:00;101591.7;;;24.3;unknown
73422;BME280;61637;47.760;-122.022;2022-08-03T02:08:01;101591.7;;;24.2;unknown
73422;BME280;61637;47.760;-122.022;2022-08-03T02:10:01;101591.7;;;24.1;unknown
73422;BME280;61637;47.760;-122.022;2022-08-03T02:12:00;101591.7;;;24.1;unknown
73422;BME280;61637;47.760;-122.022;2022-08-03T02:14:01;101591.7;;;24.0;unknown
73422;BME280;61637;47.760;-122.022;2022-08-03T02:16:00;101591.7;;;24.2;unknown
73422;BME280;61637;47.760;-122.022;2022-08-03T02:18:01;101591.7;;;24.3;unknown
73422;BME280;61637;47.760;-122.022;2022-08-03T02:20:01;101591.7;;;24.4;unknown
73422;BME280;61637;47.760;-122.022;2022-08-03T02:22:00;101591.7;;;24.3;unknown
73422;BME280;61637;47.760;-122.022;2022-08-03T02:24:00;101591.7;;;24.3;unknown
73422;BME280;61637;47.760;-122.022;2022-08-03T02:26:01;101591.7;;;24.3;unknown
73422;BME280;61637;47.760;-122.022;2022-08-03T02:28:03;101591.7;;;24.2;unknown
73422;BME280;61637;47.760;-122.022;2022-08-03T02:30:02;101591.7;;;24.3;unknown
73422;BME280;61637;47.760;-122.022;2022-08-03T02:32:00;101591.7;;;24.2;unknown
73422;BME280;61637;47.760;-122.022;2022-08-03T02:34:01;101591.7;;;24.2;unknown
73422;BME280;61637;47.760;-122.022;2022-08-03T02:36:00;101591.7;;;24.1;unknown
73422;BME280;61637;47.760;-122.022;2022-08-03T02:38:01;101591.7;;;23.9;unknown
73422;BME280;61637;47.760;-122.022;2022-08-03T02:40:01;101591.7;;;23.6;unknown
73422;BME280;61637;47.760;-122.022;2022-08-03T02:42:00;101591.7;;;23.4;unknown
73422;BME280;61637;47.760;-122.022;2022-08-03T02:44:01;101591.7;;;23.2;unknown
73422;BME280;61637;47.760;-122.022;2022-08-03T02:46:00;101591.7;;;23.0;unknown
73422;BME280;61637;47.760;-122.022;2022-08-03T02:48:02;101591.7;;;22.8;unknown
73422;BME280;61637;47.760;-122.022;2022-08-03T02:50:00;101591.7;;;22.6;unknown
73422;BME280;61637;47.760;-122.022;2022-08-03T02:52:00;101591.7;;;22.4;unknown
73422;BME280;61637;47.760;-122.022;2022-08-03T02:54:01;101591.7;;;22.2;unknown
73422;BME280;61637;47.760;-122.022;2022-08-03T02:56:01;101591.7;;;22.1;unknown
73422;BME280;61637;47.760;-122.022;2022-08-03T02:58:00;101591.7;;;22.0;unknown
73422;BME280;61637;47.760;-122.022;2022-08-03T03:00:00;101591.7;;;21.9;unknown
73422;BME280;61637;47.760;-122.022;2022-08-03T03:02:00;101591.7;;;21.8;unknown
73422;BME280;61637;47.760;-122.022;2022-08-03T03:04:00;101591.7;;;21.7;unknown
73422;BME280;61637;47.760;-122.022;2022-08-03T03:06:00;101591.7;;;21.6;unknown
73422;BME280;61637;47.760;-122.022;2022-08-03T03:08:00;101591.7;;;21.5;unknown
73422;BME280;61637;47.760;-122.022;2022-08-03T03:10:00;101591.7;;;21.4;unknown
73422;BME280;61637;47.760;-122.022;2022-08-03T03:12:00;101591.7;;;21.3;unknown
73422;BME280;61637;47.760;-122.022;2022-08-03T03:14:00;101591.7;;;21.2;unknown
73422;BME280;61637;47.760;-122.022;2022-08-03T03:16:01;101591.7;;;21.1;unknown
73422;BME280;61637;47.760;-122.022;2022-08-03T03:18:00;101591.7;;;20.9;unknown
73422;BME280;61637;47.760;-122.022;2022-08-03T03:20:00;101591.7;;;20.9;unknown
73422;BME280;61637;47.760;-122.022;2022-08-03T03:22:00;101591.7;;;20.8;unknown
73422;BME280;61637;47.760;-122.022;2022-08-03T03:24:01;101591.7;;;20.8;unknown
73422;BME280;61637;47.760;-122.022;2022-08-03T03:26:00;101591.7;;;20.7;unknown
73422;BME280;61637;47.760;-122.022;2022-08-03T03:28:00;101591.7;;;20.7;unknown
73422;BME280;61637;47.760;-122.022;2022-08-03T03:30:00;101591.7;;;20.7;unknown
73422;BME280;61637;47.760;-122.022;2022-08-03T03:32:00;101591.7;;;20.6;unknown
73422;BME280;61637;47.760;-122.022;2022-08-03T03:34:00;101591.7;;;20.6;unknown
73422;BME280;61637;47.760;-122.022;2022-08-03T03:36:00;101591.7;;;20.6;unknown
73422;BME280;61637;47.760;-122.022;2022-08-03T03:38:00;101591.7;;;20.4;unknown
73422;BME280;61637;47.760;-122.022;2022-08-03T03:40:00;101591.7;;;20.4;unknown
73422;BME280;61637;47.760;-122.022;2022-08-03T03:42:00;101591.7;;;20.3;unknown
73422;BME280;61637;47.760;-122.022;2022-08-03T03:44:00;101591.7;;;20.3;unknown
73422;BME280;61637;47.760;-122.022;2022-08-03T03:46:00;101591.7;;;20.3;unknown
73422;BME280;61637;47.760;-122.022;2022-08-03T03:48:01;101591.7;;;20.2;unknown
73422;BME280;61637;47.760;-122.022;2022-08-03T03:50:00;101591.7;;;20.2;unknown
73422;BME280;61637;47.760;-122.022;2022-08-03T03:52:00;101591.7;;;20.1;unknown
73422;BME280;61637;47.760;-122.022;2022-08-03T03:54:01;101591.7;;;20.0;unknown
73422;BME280;61637;47.760;-122.022;2022-08-03T03:56:00;101591.7;;;19.9;unknown
73422;BME280;61637;47.760;-122.022;2022-08-03T03:58:00;101591.7;;;19.9;unknown
73422;BME280;61637;47.760;-122.022;2022-08-03T04:00:00;101591.7;;;19.8;unknown
73422;BME280;61637;47.760;-122.022;2022-08-03T04:02:00;101591.7;;;19.8;unknown
73422;BME280;61637;47.760;-122.022;2022-08-03T04:04:00;101591.7;;;19.8;unknown
73422;BME280;61637;47.760;-122.022;2022-08-03T04:06:00;101591.7;;;19.7;unknown
73422;BME280;61637;47.760;-122.022;2022-08-03T04:08:02;101591.7;;;19.6;unknown
73422;BME280;61637;47.760;-122.022;2022-08-03T04:10:00;101591.7;;;19.6;unknown
73422;BME280;61637;47.760;-122.022;2022-08-03T04:12:00;101591.7;;;19.5;unknown
73422;BME280;61637;47.760;-122.022;2022-08-03T04:14:02;101591.7;;;19.5;unknown
73422;BME280;61637;47.760;-122.022;2022-08-03T04:16:00;101591.7;;;19.4;unknown
73422;BME280;61637;47.760;-122.022;2022-08-03T04:18:00;101591.7;;;19.3;unknown
73422;BME280;61637;47.760;-122.022;2022-08-03T04:20:00;101591.7;;;19.3;unknown
73422;BME280;61637;47.760;-122.022;2022-08-03T04:22:02;101591.7;;;19.2;unknown
73422;BME280;61637;47.760;-122.022;2022-08-03T04:24:02;101591.7;;;19.2;unknown
73422;BME280;61637;47.760;-122.022;2022-08-03T04:26:01;101591.7;;;19.2;unknown
73422;BME280;61637;47.760;-122.022;2022-08-03T04:28:00;101591.7;;;19.1;unknown
73422;BME280;61637;47.760;-122.022;2022-08-03T04:30:01;101591.7;;;19.0;unknown
73422;BME280;61637;47.760;-122.022;2022-08-03T04:32:01;101591.7;;;19.0;unknown
73422;BME280;61637;47.760;-122.022;2022-08-03T04:34:00;101591.7;;;18.9;unknown
73422;BME280;61637;47.760;-122.022;2022-08-03T04:36:00;101591.7;;;18.9;unknown
73422;BME280;61637;47.760;-122.022;2022-08-03T04:38:01;101591.7;;;18.8;unknown
73422;BME280;61637;47.760;-122.022;2022-08-03T04:40:01;101591.7;;;18.8;unknown
73422;BME280;61637;47.760;-122.022;2022-08-03T04:42:01;101591.7;;;18.8;unknown
73422;BME280;61637;47.760;-122.022;2022-08-03T04:44:00;101591.7;;;18.8;unknown
73422;BME280;61637;47.760;-122.022;2022-08-03T04:46:00;101591.7;;;18.7;unknown
73422;BME280;61637;47.760;-122.022;2022-08-03T04:48:01;101591.7;;;18.7;unknown
73422;BME280;61637;47.760;-122.022;2022-08-03T04:50:00;101591.7;;;18.7;unknown
73422;BME280;61637;47.760;-122.022;2022-08-03T04:52:00;101591.7;;;18.6;unknown
73422;BME280;61637;47.760;-122.022;2022-08-03T04:54:00;101591.7;;;18.6;unknown
73422;BME280;61637;47.760;-122.022;2022-08-03T04:56:04;101591.7;;;18.6;unknown
73422;BME280;61637;47.760;-122.022;2022-08-03T04:58:00;101591.7;;;18.5;unknown
73422;BME280;61637;47.760;-122.022;2022-08-03T05:00:00;101591.7;;;18.4;unknown
73422;BME280;61637;47.760;-122.022;2022-08-03T05:02:00;101591.7;;;18.4;unknown
73422;BME280;61637;47.760;-122.022;2022-08-03T05:04:00;101591.7;;;18.3;unknown
73422;BME280;61637;47.760;-122.022;2022-08-03T05:06:00;101591.7;;;18.3;unknown
73422;BME280;61637;47.760;-122.022;2022-08-03T05:08:00;101591.7;;;18.3;unknown
73422;BME280;61637;47.760;-122.022;2022-08-03T05:10:00;101591.7;;;18.2;unknown
73422;BME280;61637;47.760;-122.022;2022-08-03T05:12:01;101591.7;;;18.2;unknown
73422;BME280;61637;47.760;-122.022;2022-08-03T05:14:00;101591.7;;;18.1;unknown
73422;BME280;61637;47.760;-122.022;2022-08-03T05:16:00;101591.7;;;18.1;unknown
73422;BME280;61637;47.760;-122.022;2022-08-03T05:18:00;101591.7;;;18.1;unknown
73422;BME280;61637;47.760;-122.022;2022-08-03T05:20:01;101591.7;;;17.9;unknown
73422;BME280;61637;47.760;-122.022;2022-08-03T05:22:00;101591.7;;;17.9;unknown
73422;BME280;61637;47.760;-122.022;2022-08-03T05:24:00;101591.7;;;17.9;unknown
73422;BME280;61637;47.760;-122.022;2022-08-03T05:26:00;101591.7;;;17.8;unknown
73422;BME280;61637;47.760;-122.022;2022-08-03T05:28:00;101591.7;;;17.8;unknown
73422;BME280;61637;47.760;-122.022;2022-08-03T05:30:00;101591.7;;;17.8;unknown
73422;BME280;61637;47.760;-122.022;2022-08-03T05:32:01;101591.7;;;17.8;unknown
73422;BME280;61637;47.760;-122.022;2022-08-03T05:34:00;101591.7;;;17.8;unknown
73422;BME280;61637;47.760;-122.022;2022-08-03T05:36:00;101591.7;;;17.7;unknown
73422;BME280;61637;47.760;-122.022;2022-08-03T05:38:01;101591.7;;;17.7;unknown
73422;BME280;61637;47.760;-122.022;2022-08-03T05:40:00;101591.7;;;17.6;unknown
73422;BME280;61637;47.760;-122.022;2022-08-03T05:42:00;101591.7;;;17.6;unknown
73422;BME280;61637;47.760;-122.022;2022-08-03T05:44:01;101591.7;;;17.6;unknown
73422;BME280;61637;47.760;-122.022;2022-08-03T05:46:00;101591.7;;;17.6;unknown
73422;BME280;61637;47.760;-122.022;2022-08-03T05:48:00;101591.7;;;17.5;unknown
73422;BME280;61637;47.760;-122.022;2022-08-03T05:50:00;101591.7;;;17.5;unknown
73422;BME280;61637;47.760;-122.022;2022-08-03T05:52:00;101591.7;;;17.7;unknown
73422;BME280;61637;47.760;-122.022;2022-08-03T05:54:00;101591.7;;;17.9;unknown
73422;BME280;61637;47.760;-122.022;2022-08-03T05:56:01;101591.7;;;18.4;unknown
73422;BME280;61637;47.760;-122.022;2022-08-03T05:58:01;101591.7;;;18.8;unknown
73422;BME280;61637;47.760;-122.022;2022-08-03T06:00:01;101591.7;;;18.9;unknown
73422;BME280;61637;47.760;-122.022;2022-08-03T06:02:00;101591.7;;;19.2;unknown
73422;BME280;61637;47.760;-122.022;2022-08-03T06:04:00;101591.7;;;19.3;unknown
73422;BME280;61637;47.760;-122.022;2022-08-03T06:06:00;101591.7;;;19.4;unknown
73422;BME280;61637;47.760;-122.022;2022-08-03T06:08:00;101591.7;;;19.4;unknown
73422;BME280;61637;47.760;-122.022;2022-08-03T06:10:00;101591.7;;;19.5;unknown
73422;BME280;61637;47.760;-122.022;2022-08-03T06:12:00;101591.7;;;19.6;unknown
73422;BME280;61637;47.760;-122.022;2022-08-03T06:14:00;101591.7;;;19.6;unknown
73422;BME280;61637;47.760;-122.022;2022-08-03T06:16:00;101591.7;;;19.6;unknown
73422;BME280;61637;47.760;-122.022;2022-08-03T06:18:00;101591.7;;;19.6;unknown
73422;BME280;61637;47.760;-122.022;2022-08-03T06:20:00;101591.7;;;19.6;unknown
73422;BME280;61637;47.760;-122.022;2022-08-03T06:22:00;101591.7;;;19.6;unknown
73422;BME280;61637;47.760;-122.022;2022-08-03T06:24:00;101591.7;;;19.6;unknown
73422;BME280;61637;47.760;-122.022;2022-08-03T06:26:00;101591.7;;;19.6;unknown
73422;BME280;61637;47.760;-122.022;2022-08-03T06:28:00;101591.7;;;19.6;unknown
73422;BME280;61637;47.760;-122.022;2022-08-03T06:30:00;101591.7;;;19.6;unknown
73422;BME280;61637;47.760;-122.022;2022-08-03T06:32:00;101591.7;;;19.4;unknown
73422;BME280;61637;47.760;-122.022;2022-08-03T06:34:02;101591.7;;;19.4;unknown
73422;BME280;61637;47.760;-122.022;2022-08-03T06:36:00;101591.7;;;19.5;unknown
73422;BME280;61637;47.760;-122.022;2022-08-03T06:38:00;101591.7;;;19.4;unknown
73422;BME280;61637;47.760;-122.022;2022-08-03T06:40:00;101591.7;;;19.4;unknown
73422;BME280;61637;47.760;-122.022;2022-08-03T06:42:00;101591.7;;;19.4;unknown
73422;BME280;61637;47.760;-122.022;2022-08-03T06:44:01;101591.7;;;19.4;unknown
73422;BME280;61637;47.760;-122.022;2022-08-03T06:46:00;101591.7;;;19.3;unknown
73422;BME280;61637;47.760;-122.022;2022-08-03T06:48:01;101591.7;;;19.3;unknown
73422;BME280;61637;47.760;-122.022;2022-08-03T06:50:00;101591.7;;;19.1;unknown
73422;BME280;61637;47.760;-122.022;2022-08-03T06:52:00;101591.7;;;19.0;unknown
73422;BME280;61637;47.760;-122.022;2022-08-03T06:54:00;101591.7;;;18.8;unknown
73422;BME280;61637;47.760;-122.022;2022-08-03T06:56:00;101591.7;;;18.6;unknown
73422;BME280;61637;47.760;-122.022;2022-08-03T06:58:00;101591.7;;;18.3;unknown
73422;BME280;61637;47.760;-122.022;2022-08-03T07:00:00;101591.7;;;18.1;unknown
73422;BME280;61637;47.760;-122.022;2022-08-03T07:02:00;101591.7;;;17.9;unknown
73422;BME280;61637;47.760;-122.022;2022-08-03T07:04:00;101591.7;;;17.8;unknown
73422;BME280;61637;47.760;-122.022;2022-08-03T07:06:00;101591.7;;;17.6;unknown
73422;BME280;61637;47.760;-122.022;2022-08-03T07:08:00;101591.7;;;17.4;unknown
73422;BME280;61637;47.760;-122.022;2022-08-03T07:10:00;101591.7;;;17.3;unknown
73422;BME280;61637;47.760;-122.022;2022-08-03T07:12:00;101591.7;;;17.2;unknown
73422;BME280;61637;47.760;-122.022;2022-08-03T07:14:00;101591.7;;;17.0;unknown
73422;BME280;61637;47.760;-122.022;2022-08-03T07:16:00;101591.7;;;16.9;unknown
73422;BME280;61637;47.760;-122.022;2022-08-03T07:18:00;101591.7;;;16.8;unknown
73422;BME280;61637;47.760;-122.022;2022-08-03T07:20:01;101591.7;;;16.8;unknown
73422;BME280;61637;47.760;-122.022;2022-08-03T07:22:00;101591.7;;;16.7;unknown
73422;BME280;61637;47.760;-122.022;2022-08-03T07:24:00;101591.7;;;16.7;unknown
73422;BME280;61637;47.760;-122.022;2022-08-03T07:26:00;101591.7;;;16.6;unknown
73422;BME280;61637;47.760;-122.022;2022-08-03T07:28:00;101591.7;;;16.5;unknown
73422;BME280;61637;47.760;-122.022;2022-08-03T07:30:00;101591.7;;;16.4;unknown
73422;BME280;61637;47.760;-122.022;2022-08-03T07:32:01;101591.7;;;16.4;unknown
73422;BME280;61637;47.760;-122.022;2022-08-03T07:34:00;101591.7;;;16.3;unknown
73422;BME280;61637;47.760;-122.022;2022-08-03T07:36:01;101591.7;;;16.3;unknown
73422;BME280;61637;47.760;-122.022;2022-08-03T07:38:00;101591.7;;;16.3;unknown
73422;BME280;61637;47.760;-122.022;2022-08-03T07:40:00;101591.7;;;16.3;unknown
73422;BME280;61637;47.760;-122.022;2022-08-03T07:42:00;101591.7;;;16.2;unknown
73422;BME280;61637;47.760;-122.022;2022-08-03T07:44:00;101591.7;;;16.2;unknown
73422;BME280;61637;47.760;-122.022;2022-08-03T07:46:00;101591.7;;;16.2;unknown
73422;BME280;61637;47.760;-122.022;2022-08-03T07:48:00;101591.7;;;16.2;unknown
73422;BME280;61637;47.760;-122.022;2022-08-03T07:50:00;101591.7;;;16.2;unknown
73422;BME280;61637;47.760;-122.022;2022-08-03T07:52:00;101591.7;;;16.1;unknown
73422;BME280;61637;47.760;-122.022;2022-08-03T07:54:00;101591.7;;;16.1;unknown
73422;BME280;61637;47.760;-122.022;2022-08-03T07:56:00;101591.7;;;16.1;unknown
73422;BME280;61637;47.760;-122.022;2022-08-03T07:58:02;101591.7;;;16.1;unknown
73422;BME280;61637;47.760;-122.022;2022-08-03T08:00:01;101591.7;;;16.0;unknown
73422;BME280;61637;47.760;-122.022;2022-08-03T08:02:00;101591.7;;;15.9;unknown
73422;BME280;61637;47.760;-122.022;2022-08-03T08:04:00;101591.7;;;15.9;unknown
73422;BME280;61637;47.760;-122.022;2022-08-03T08:06:00;101591.7;;;15.9;unknown
73422;BME280;61637;47.760;-122.022;2022-08-03T08:08:00;101591.7;;;15.9;unknown
73422;BME280;61637;47.760;-122.022;2022-08-03T08:10:00;101591.7;;;15.8;unknown
73422;BME280;61637;47.760;-122.022;2022-08-03T08:12:00;101591.7;;;15.8;unknown
73422;BME280;61637;47.760;-122.022;2022-08-03T08:14:00;101591.7;;;15.8;unknown
73422;BME280;61637;47.760;-122.022;2022-08-03T08:16:00;101591.7;;;15.7;unknown
73422;BME280;61637;47.760;-122.022;2022-08-03T08:18:00;101591.7;;;15.7;unknown
73422;BME280;61637;47.760;-122.022;2022-08-03T08:20:00;101591.7;;;15.7;unknown
73422;BME280;61637;47.760;-122.022;2022-08-03T08:22:00;101591.7;;;15.7;unknown
73422;BME280;61637;47.760;-122.022;2022-08-03T08:24:00;101591.7;;;15.7;unknown
73422;BME280;61637;47.760;-122.022;2022-08-03T08:26:00;101591.7;;;15.6;unknown
73422;BME280;61637;47.760;-122.022;2022-08-03T08:28:00;101591.7;;;15.6;unknown
73422;BME280;61637;47.760;-122.022;2022-08-03T08:30:03;101591.7;;;15.6;unknown
73422;BME280;61637;47.760;-122.022;2022-08-03T08:32:00;101591.7;;;15.6;unknown
73422;BME280;61637;47.760;-122.022;2022-08-03T08:34:00;101591.7;;;15.5;unknown
73422;BME280;61637;47.760;-122.022;2022-08-03T08:36:00;101591.7;;;15.4;unknown
73422;BME280;61637;47.760;-122.022;2022-08-03T08:38:00;101591.7;;;15.4;unknown
73422;BME280;61637;47.760;-122.022;2022-08-03T08:40:00;101591.7;;;15.4;unknown
73422;BME280;61637;47.760;-122.022;2022-08-03T08:42:00;101591.7;;;15.4;unknown
73422;BME280;61637;47.760;-122.022;2022-08-03T08:44:00;101591.7;;;15.4;unknown
73422;BME280;61637;47.760;-122.022;2022-08-03T08:46:00;101591.7;;;15.4;unknown
73422;BME280;61637;47.760;-122.022;2022-08-03T08:48:01;101591.7;;;15.4;unknown
73422;BME280;61637;47.760;-122.022;2022-08-03T08:50:00;101591.7;;;15.4;unknown
73422;BME280;61637;47.760;-122.022;2022-08-03T08:52:00;101591.7;;;15.4;unknown
73422;BME280;61637;47.760;-122.022;2022-08-03T08:54:00;101591.7;;;15.3;unknown
73422;BME280;61637;47.760;-122.022;2022-08-03T08:56:00;101591.7;;;15.3;unknown
73422;BME280;61637;47.760;-122.022;2022-08-03T08:58:01;101591.7;;;15.3;unknown
73422;BME280;61637;47.760;-122.022;2022-08-03T09:00:01;101591.7;;;15.3;unknown
73422;BME280;61637;47.760;-122.022;2022-08-03T09:02:00;101591.7;;;15.3;unknown
73422;BME280;61637;47.760;-122.022;2022-08-03T09:04:00;101591.7;;;15.3;unknown
73422;BME280;61637;47.760;-122.022;2022-08-03T09:06:00;101591.7;;;15.3;unknown
73422;BME280;61637;47.760;-122.022;2022-08-03T09:08:00;101591.7;;;15.3;unknown
73422;BME280;61637;47.760;-122.022;2022-08-03T09:10:00;101591.7;;;15.3;unknown
73422;BME280;61637;47.760;-122.022;2022-08-03T09:12:00;101591.7;;;15.3;unknown
73422;BME280;61637;47.760;-122.022;2022-08-03T09:14:00;101591.7;;;15.3;unknown
73422;BME280;61637;47.760;-122.022;2022-08-03T09:16:08;101591.7;;;15.3;unknown
73422;BME280;61637;47.760;-122.022;2022-08-03T09:18:01;101591.7;;;15.2;unknown
73422;BME280;61637;47.760;-122.022;2022-08-03T09:20:04;101591.7;;;15.3;unknown
73422;BME280;61637;47.760;-122.022;2022-08-03T09:22:06;101591.7;;;15.3;unknown
73422;BME280;61637;47.760;-122.022;2022-08-03T09:24:01;101591.7;;;15.2;unknown
73422;BME280;61637;47.760;-122.022;2022-08-03T09:26:00;101591.7;;;15.2;unknown
73422;BME280;61637;47.760;-122.022;2022-08-03T09:28:04;101591.7;;;15.2;unknown
73422;BME280;61637;47.760;-122.022;2022-08-03T09:30:00;101591.7;;;15.2;unknown
73422;BME280;61637;47.760;-122.022;2022-08-03T09:32:02;101591.7;;;15.2;unknown
73422;BME280;61637;47.760;-122.022;2022-08-03T09:34:01;101591.7;;;15.2;unknown
73422;BME280;61637;47.760;-122.022;2022-08-03T09:36:00;101591.7;;;15.2;unknown
73422;BME280;61637;47.760;-122.022;2022-08-03T09:38:08;101591.7;;;15.1;unknown
73422;BME280;61637;47.760;-122.022;2022-08-03T09:40:00;101591.7;;;15.1;unknown
73422;BME280;61637;47.760;-122.022;2022-08-03T09:42:04;101591.7;;;15.1;unknown
73422;BME280;61637;47.760;-122.022;2022-08-03T09:44:00;101591.7;;;15.1;unknown
73422;BME280;61637;47.760;-122.022;2022-08-03T09:46:02;101591.7;;;15.0;unknown
73422;BME280;61637;47.760;-122.022;2022-08-03T09:50:01;101591.7;;;14.9;unknown
73422;BME280;61637;47.760;-122.022;2022-08-03T09:52:01;101591.7;;;14.9;unknown
73422;BME280;61637;47.760;-122.022;2022-08-03T09:54:00;101591.7;;;14.9;unknown
73422;BME280;61637;47.760;-122.022;2022-08-03T09:56:01;101591.7;;;14.9;unknown
73422;BME280;61637;47.760;-122.022;2022-08-03T09:58:04;101591.7;;;14.9;unknown
73422;BME280;61637;47.760;-122.022;2022-08-03T10:00:09;101591.7;;;14.8;unknown
73422;BME280;61637;47.760;-122.022;2022-08-03T10:02:00;101591.7;;;14.8;unknown
73422;BME280;61637;47.760;-122.022;2022-08-03T10:04:00;101591.7;;;14.8;unknown